Time;durP1;ratioP1;P1;durP2;ratioP2;P2;SDS_P1;SDS_P2;PMS_P1;PMS_P2;Temp;Humidity;BMP_temperature;BMP_pressure;BME280_temperature;BME280_humidity;BME280_pressure;Samples;Min_cycle;Max_cycle;Signal;HPM_P1;HPM_P2
2021/10/05 00:00:25;;;;;;;;;;;16.70;71.10;;;;;;5047224;28;20171;-79
2021/10/05 00:02:51;;;;;;;;;;;16.70;71.60;;;;;;5064444;28;19916;-79
2021/10/05 00:05:16;;;;;;;;;;;16.60;71.90;;;;;;5047309;28;20339;-78
2021/10/05 00:07:42;;;;;;;;;;;16.60;72.20;;;;;;5047544;28;20388;-77
2021/10/05 00:10:08;;;;;;;;;;;16.50;72.50;;;;;;5048801;28;20417;-78
2021/10/05 00:12:34;;;;;;;;;;;16.50;72.60;;;;;;5063571;28;19961;-80
2021/10/05 00:15:00;;;;;;;;;;;16.40;73.00;;;;;;5063809;28;19916;-79
2021/10/05 00:17:25;;;;;;;;;;;16.40;73.20;;;;;;5048826;28;19908;-79
2021/10/05 00:19:51;;;;;;;;;;;16.40;73.40;;;;;;5047898;28;19955;-79
2021/10/05 00:22:16;;;;;;;;;;;16.30;73.70;;;;;;5048057;28;19912;-79
2021/10/05 00:24:42;;;;;;;;;;;16.30;73.80;;;;;;5048641;28;19912;-79
2021/10/05 00:27:07;;;;;;;;;;;16.20;74.00;;;;;;5048542;28;20388;-79
2021/10/05 00:29:33;;;;;;;;;;;16.20;74.30;;;;;;5048298;28;19909;-79
2021/10/05 00:31:59;;;;;;;;;;;16.10;74.50;;;;;;5047904;28;19913;-79
2021/10/05 00:34:24;;;;;;;;;;;16.00;74.80;;;;;;5047934;28;19917;-78
2021/10/05 00:36:50;;;;;;;;;;;16.00;75.30;;;;;;5062557;28;19915;-79
2021/10/05 00:39:15;;;;;;;;;;;16.00;75.40;;;;;;5046699;28;19924;-78
2021/10/05 00:41:41;;;;;;;;;;;16.00;75.60;;;;;;5048069;28;20370;-78
2021/10/05 00:44:06;;;;;;;;;;;16.00;75.80;;;;;;5047329;28;19920;-79
2021/10/05 00:46:34;;;;;;;;;;;15.90;75.80;;;;;;5048137;28;19908;-78
2021/10/05 00:49:00;;;;;;;;;;;15.90;75.90;;;;;;5047643;28;19948;-78
2021/10/05 00:51:26;;;;;;;;;;;16.00;76.00;;;;;;5047690;28;19962;-78
2021/10/05 00:53:52;;;;;;;;;;;15.90;76.10;;;;;;5047892;28;19904;-79
2021/10/05 00:56:17;;;;;;;;;;;15.90;76.70;;;;;;5047647;28;19967;-78
2021/10/05 00:58:43;;;;;;;;;;;15.90;76.90;;;;;;5047784;28;19948;-79
2021/10/05 01:01:09;;;;;;;;;;;15.80;77.10;;;;;;5047525;28;19915;-79
2021/10/05 01:03:34;;;;;;;;;;;15.80;77.70;;;;;;5047956;28;19908;-78
2021/10/05 01:06:00;;;;;;;;;;;15.70;78.40;;;;;;5047525;28;19911;-79
2021/10/05 01:08:26;;;;;;;;;;;15.70;78.50;;;;;;5047565;28;19913;-78
2021/10/05 01:10:52;;;;;;;;;;;15.70;78.40;;;;;;5047432;28;19916;-78
2021/10/05 01:13:17;;;;;;;;;;;15.70;78.40;;;;;;5045864;28;19947;-78
2021/10/05 01:15:43;;;;;;;;;;;15.70;78.60;;;;;;5047394;28;19913;-80
2021/10/05 01:18:08;;;;;;;;;;;15.80;78.10;;;;;;5050314;28;19905;-78
2021/10/05 01:20:50;;;;;;;;;;;15.80;78.20;;;;;;5047381;28;19904;-78
2021/10/05 01:23:15;;;;;;;;;;;15.80;78.20;;;;;;5047622;28;19915;-79
2021/10/05 01:25:41;;;;;;;;;;;15.80;78.20;;;;;;5047188;28;19908;-79
2021/10/05 01:28:07;;;;;;;;;;;15.90;78.60;;;;;;5046838;28;19908;-79
2021/10/05 01:30:33;;;;;;;;;;;15.90;78.20;;;;;;5047197;28;20135;-79
2021/10/05 01:32:58;;;;;;;;;;;15.90;78.20;;;;;;5062744;28;19950;-78
2021/10/05 01:35:24;;;;;;;;;;;16.00;78.00;;;;;;5046009;28;19962;-78
2021/10/05 01:37:49;;;;;;;;;;;16.00;77.70;;;;;;5046814;28;20365;-79
2021/10/05 01:40:15;;;;;;;;;;;16.10;78.10;;;;;;5046431;28;19921;-77
2021/10/05 01:42:40;;;;;;;;;;;16.10;77.30;;;;;;5047086;28;19920;-78
2021/10/05 01:45:07;;;;;;;;;;;16.10;77.50;;;;;;5045782;28;19917;-79
2021/10/05 01:47:33;;;;;;;;;;;16.10;77.90;;;;;;5047360;28;19913;-78
2021/10/05 01:49:58;;;;;;;;;;;16.20;77.90;;;;;;5044773;28;19915;-79
2021/10/05 01:52:23;;;;;;;;;;;16.10;77.90;;;;;;5047000;28;20023;-79
2021/10/05 01:54:49;;;;;;;;;;;16.10;78.00;;;;;;5046726;28;19919;-79
2021/10/05 01:57:15;;;;;;;;;;;16.10;77.90;;;;;;5046433;28;19909;-79
2021/10/05 01:59:40;;;;;;;;;;;16.20;77.80;;;;;;5046460;28;19928;-78
2021/10/05 02:02:06;;;;;;;;;;;16.20;77.90;;;;;;5047032;28;19909;-78
2021/10/05 02:04:32;;;;;;;;;;;16.10;78.30;;;;;;5046680;28;20359;-78
2021/10/05 02:06:57;;;;;;;;;;;16.10;78.10;;;;;;5046985;28;19912;-78
2021/10/05 02:09:23;;;;;;;;;;;16.10;78.70;;;;;;5062185;28;19909;-79
2021/10/05 02:11:49;;;;;;;;;;;16.10;78.30;;;;;;5045689;28;19909;-79
2021/10/05 02:14:14;;;;;;;;;;;16.00;77.90;;;;;;5046629;28;19909;-77
2021/10/05 02:16:40;;;;;;;;;;;16.00;78.10;;;;;;5046420;28;19912;-77
2021/10/05 02:19:06;;;;;;;;;;;16.00;78.30;;;;;;5046231;28;19977;-79
2021/10/05 02:21:32;;;;;;;;;;;15.90;78.60;;;;;;5046824;28;19908;-78
2021/10/05 02:26:42;;;;;;;;;;;15.70;78.90;;;;;;5045928;28;19912;-79
2021/10/05 02:29:07;;;;;;;;;;;15.70;79.00;;;;;;5046469;28;19909;-78
2021/10/05 02:31:33;;;;;;;;;;;15.60;79.40;;;;;;5046781;28;19905;-78
2021/10/05 02:33:58;;;;;;;;;;;15.50;79.40;;;;;;5046460;28;19908;-79
2021/10/05 02:36:24;;;;;;;;;;;15.40;79.40;;;;;;5046333;28;19919;-79
2021/10/05 02:38:50;;;;;;;;;;;15.40;79.70;;;;;;5046867;28;20350;-79
2021/10/05 02:41:15;;;;;;;;;;;15.30;80.20;;;;;;5046297;28;19927;-79
2021/10/05 02:43:41;;;;;;;;;;;15.20;80.70;;;;;;5061794;28;20385;-79
2021/10/05 02:46:06;;;;;;;;;;;15.20;81.10;;;;;;5046095;28;19920;-79
2021/10/05 02:48:32;;;;;;;;;;;15.10;81.50;;;;;;5046704;28;19909;-79
2021/10/05 02:50:57;;;;;;;;;;;15.00;82.00;;;;;;5046562;28;19904;-78
2021/10/05 02:53:23;;;;;;;;;;;14.90;83.00;;;;;;5045271;28;19909;-79
2021/10/05 02:55:49;;;;;;;;;;;14.80;83.40;;;;;;5044727;28;20159;-77
2021/10/05 02:58:16;;;;;;;;;;;14.80;83.00;;;;;;5044384;28;19932;-77
2021/10/05 03:00:42;;;;;;;;;;;14.70;83.20;;;;;;5063327;28;19908;-79
2021/10/05 03:03:07;;;;;;;;;;;14.70;83.20;;;;;;5050326;28;19909;-78
2021/10/05 03:05:33;;;;;;;;;;;14.60;83.60;;;;;;5048820;28;19905;-79
2021/10/05 03:07:59;;;;;;;;;;;14.60;83.90;;;;;;5049771;28;20431;-79
2021/10/05 03:10:24;;;;;;;;;;;14.50;83.80;;;;;;5049330;28;19904;-79
2021/10/05 03:12:50;;;;;;;;;;;14.50;84.30;;;;;;5049425;28;19951;-78
2021/10/05 03:15:15;;;;;;;;;;;14.50;84.10;;;;;;5049619;28;19995;-79
2021/10/05 03:17:41;;;;;;;;;;;14.50;84.10;;;;;;5049730;28;20369;-79
2021/10/05 03:20:07;;;;;;;;;;;14.50;84.40;;;;;;5049758;28;19912;-79
2021/10/05 03:22:33;;;;;;;;;;;14.50;84.00;;;;;;5048552;28;19966;-79
2021/10/05 03:24:58;;;;;;;;;;;14.50;84.20;;;;;;5049656;28;20769;-79
2021/10/05 03:27:24;;;;;;;;;;;14.60;84.20;;;;;;5049148;28;20278;-79
2021/10/05 03:29:49;;;;;;;;;;;14.70;84.10;;;;;;5048111;28;19948;-79
2021/10/05 03:32:15;;;;;;;;;;;14.60;83.90;;;;;;5049735;28;19905;-79
2021/10/05 03:34:40;;;;;;;;;;;14.70;83.90;;;;;;5047906;28;19917;-79
2021/10/05 03:37:06;;;;;;;;;;;14.60;83.90;;;;;;5049093;28;19954;-79
2021/10/05 03:39:32;;;;;;;;;;;14.60;84.00;;;;;;5047890;28;19956;-78
2021/10/05 03:41:57;;;;;;;;;;;14.60;84.20;;;;;;5048819;28;20292;-78
2021/10/05 03:44:23;;;;;;;;;;;14.50;84.50;;;;;;5049363;28;19912;-79
2021/10/05 03:46:49;;;;;;;;;;;14.50;84.30;;;;;;5049129;28;19908;-79
2021/10/05 03:49:14;;;;;;;;;;;14.60;84.50;;;;;;5049354;28;19944;-79
2021/10/05 03:51:43;;;;;;;;;;;14.50;84.70;;;;;;5049519;28;20322;-79
2021/10/05 03:54:08;;;;;;;;;;;14.50;84.70;;;;;;5048337;28;20808;-78
2021/10/05 03:56:34;;;;;;;;;;;14.50;84.80;;;;;;5048508;28;20014;-77
2021/10/05 03:58:59;;;;;;;;;;;14.50;84.90;;;;;;5049303;28;19999;-79
2021/10/05 04:01:25;;;;;;;;;;;14.50;85.10;;;;;;5064609;28;19909;-78
2021/10/05 04:03:50;;;;;;;;;;;14.50;84.90;;;;;;5049152;28;19995;-77
2021/10/05 04:06:16;;;;;;;;;;;14.50;85.30;;;;;;5048109;28;19951;-79
2021/10/05 04:08:41;;;;;;;;;;;14.40;85.60;;;;;;5048479;28;19930;-79
2021/10/05 04:11:08;;;;;;;;;;;14.40;85.50;;;;;;5048387;28;19947;-78
2021/10/05 04:13:34;;;;;;;;;;;14.40;85.40;;;;;;5048373;28;19915;-78
2021/10/05 04:15:59;;;;;;;;;;;14.60;85.30;;;;;;5046948;28;19916;-79
2021/10/05 04:18:25;;;;;;;;;;;14.60;84.70;;;;;;5048719;28;19956;-77
2021/10/05 04:20:50;;;;;;;;;;;14.70;84.60;;;;;;5048498;28;19970;-79
2021/10/05 04:23:16;;;;;;;;;;;14.80;84.20;;;;;;5048478;28;20720;-79
2021/10/05 04:25:41;;;;;;;;;;;14.80;83.70;;;;;;5047948;28;19963;-79
2021/10/05 04:28:07;;;;;;;;;;;14.90;83.60;;;;;;5048036;28;19939;-79
2021/10/05 04:30:32;;;;;;;;;;;14.90;83.20;;;;;;5048400;28;20344;-76
2021/10/05 04:32:58;;;;;;;;;;;15.00;82.90;;;;;;5048259;28;19909;-77
2021/10/05 04:35:23;;;;;;;;;;;15.00;83.00;;;;;;5048425;28;20285;-78
2021/10/05 04:37:49;;;;;;;;;;;15.00;82.70;;;;;;5047413;28;19908;-78
2021/10/05 04:40:14;;;;;;;;;;;15.00;82.70;;;;;;5047230;28;19956;-78
2021/10/05 04:42:40;;;;;;;;;;;15.00;82.20;;;;;;5047489;28;19915;-79
2021/10/05 04:45:06;;;;;;;;;;;15.10;81.60;;;;;;5048219;28;20266;-78
2021/10/05 04:47:31;;;;;;;;;;;15.10;81.80;;;;;;5048237;28;19962;-79
2021/10/05 04:49:57;;;;;;;;;;;15.10;82.40;;;;;;5047617;28;20034;-79
2021/10/05 04:52:23;;;;;;;;;;;15.00;82.40;;;;;;5048163;28;19963;-79
2021/10/05 04:54:48;;;;;;;;;;;14.90;82.70;;;;;;5047708;28;19970;-79
2021/10/05 04:57:14;;;;;;;;;;;14.80;83.00;;;;;;5047506;28;19962;-78
2021/10/05 04:59:39;;;;;;;;;;;14.70;83.10;;;;;;5047583;28;20270;-79
2021/10/05 05:02:05;;;;;;;;;;;14.70;82.80;;;;;;5047631;28;19908;-79
2021/10/05 05:04:30;;;;;;;;;;;14.70;83.20;;;;;;5047421;28;19946;-78
2021/10/05 05:06:56;;;;;;;;;;;14.70;83.20;;;;;;5047887;28;19913;-79
2021/10/05 05:09:21;;;;;;;;;;;14.80;83.10;;;;;;5047404;28;19915;-80
2021/10/05 05:11:47;;;;;;;;;;;14.70;83.10;;;;;;5047189;28;19909;-79
2021/10/05 05:14:13;;;;;;;;;;;14.70;83.20;;;;;;5062685;28;19909;-79
2021/10/05 05:16:40;;;;;;;;;;;14.70;83.60;;;;;;5046050;28;19939;-79
2021/10/05 05:19:06;;;;;;;;;;;14.80;82.60;;;;;;5046572;28;19909;-78
2021/10/05 05:21:31;;;;;;;;;;;14.80;82.80;;;;;;5047573;28;19909;-79
2021/10/05 05:23:57;;;;;;;;;;;14.70;82.20;;;;;;5046818;28;19912;-78
2021/10/05 05:26:23;;;;;;;;;;;14.80;82.60;;;;;;5047284;28;20369;-78
2021/10/05 05:28:48;;;;;;;;;;;14.80;82.50;;;;;;5047262;28;19916;-78
2021/10/05 05:31:14;;;;;;;;;;;14.80;82.70;;;;;;5047180;28;19916;-78
2021/10/05 05:33:39;;;;;;;;;;;14.80;82.20;;;;;;5062797;28;20429;-79
2021/10/05 05:36:05;;;;;;;;;;;14.90;82.30;;;;;;5045288;28;20345;-79
2021/10/05 05:38:30;;;;;;;;;;;14.90;81.90;;;;;;5046742;28;19913;-79
2021/10/05 05:40:56;;;;;;;;;;;14.90;81.70;;;;;;5061627;28;20385;-79
2021/10/05 05:43:22;;;;;;;;;;;15.00;81.90;;;;;;5047042;28;20352;-79
2021/10/05 05:45:47;;;;;;;;;;;15.10;81.70;;;;;;5046692;28;19908;-79
2021/10/05 05:48:13;;;;;;;;;;;15.20;81.50;;;;;;5046194;28;19916;-79
2021/10/05 05:50:39;;;;;;;;;;;15.40;80.80;;;;;;5047171;28;20059;-79
2021/10/05 05:53:04;;;;;;;;;;;15.50;80.20;;;;;;5046876;28;19974;-78
2021/10/05 05:55:30;;;;;;;;;;;15.60;79.90;;;;;;5046962;28;19944;-79
2021/10/05 05:57:55;;;;;;;;;;;15.70;79.70;;;;;;5046659;28;19915;-79
2021/10/05 06:00:21;;;;;;;;;;;15.70;79.80;;;;;;5047146;28;19975;-79
2021/10/05 06:02:47;;;;;;;;;;;15.70;79.30;;;;;;5062307;28;20225;-79
2021/10/05 06:05:12;;;;;;;;;;;15.70;79.40;;;;;;5061347;28;19962;-80
2021/10/05 06:07:38;;;;;;;;;;;15.80;78.70;;;;;;5046182;28;19948;-80
2021/10/05 06:10:04;;;;;;;;;;;16.00;78.30;;;;;;5046446;28;19958;-80
2021/10/05 06:12:38;;;;;;;;;;;16.20;76.30;;;;;;5046840;28;19974;-80
2021/10/05 06:15:05;;;;;;;;;;;16.30;75.00;;;;;;5045368;28;19917;-78
2021/10/05 06:17:31;;;;;;;;;;;16.30;75.50;;;;;;5046082;28;19909;-79
2021/10/05 06:19:57;;;;;;;;;;;16.30;75.50;;;;;;5046102;28;19908;-79
2021/10/05 06:22:22;;;;;;;;;;;16.50;75.60;;;;;;5045702;28;19962;-78
2021/10/05 06:24:48;;;;;;;;;;;16.70;73.80;;;;;;5061156;28;20107;-79
2021/10/05 06:27:14;;;;;;;;;;;17.00;73.00;;;;;;5046619;28;19932;-79
2021/10/05 06:29:39;;;;;;;;;;;17.50;72.60;;;;;;5044997;28;20555;-79
2021/10/05 06:32:05;;;;;;;;;;;18.10;70.40;;;;;;5046088;28;19919;-78
2021/10/05 06:34:30;;;;;;;;;;;18.70;68.00;;;;;;5044789;28;19909;-78
2021/10/05 06:36:56;;;;;;;;;;;19.20;66.60;;;;;;5050219;28;19909;-80
2021/10/05 06:39:21;;;;;;;;;;;19.80;63.60;;;;;;5048728;28;19951;-79
2021/10/05 06:41:47;;;;;;;;;;;20.20;62.70;;;;;;5050307;28;20384;-82
2021/10/05 06:44:13;;;;;;;;;;;20.70;61.60;;;;;;5050578;28;19916;-81
2021/10/05 06:46:38;;;;;;;;;;;21.00;60.50;;;;;;5065411;28;19908;-77
2021/10/05 06:49:04;;;;;;;;;;;21.40;58.60;;;;;;5050052;28;20407;-78
2021/10/05 06:51:29;;;;;;;;;;;21.60;56.70;;;;;;5049893;28;19909;-77
2021/10/05 06:53:55;;;;;;;;;;;21.90;56.90;;;;;;5049103;28;20274;-79
2021/10/05 06:56:20;;;;;;;;;;;22.20;54.90;;;;;;5048490;28;19923;-81
2021/10/05 06:58:46;;;;;;;;;;;22.10;53.10;;;;;;5065154;28;19909;-79
2021/10/05 07:01:11;;;;;;;;;;;22.00;53.10;;;;;;5049664;28;19908;-78
2021/10/05 07:03:37;;;;;;;;;;;22.10;53.80;;;;;;5049955;28;19917;-77
2021/10/05 07:06:02;;;;;;;;;;;22.40;53.70;;;;;;5049318;28;19956;-78
2021/10/05 07:08:28;;;;;;;;;;;22.60;51.50;;;;;;5048202;28;19909;-80
2021/10/05 07:10:53;;;;;;;;;;;22.50;52.00;;;;;;5048521;28;19905;-80
2021/10/05 07:13:19;;;;;;;;;;;22.30;51.50;;;;;;5065100;28;20318;-80
2021/10/05 07:15:44;;;;;;;;;;;22.30;51.40;;;;;;5049600;28;19946;-80
2021/10/05 07:18:10;;;;;;;;;;;22.00;51.80;;;;;;5049578;28;20357;-80
2021/10/05 07:20:35;;;;;;;;;;;21.50;53.10;;;;;;5048435;28;19938;-80
2021/10/05 07:23:01;;;;;;;;;;;21.00;54.00;;;;;;5049654;28;19944;-80
2021/10/05 07:25:27;;;;;;;;;;;20.60;56.20;;;;;;5049548;28;20011;-79
2021/10/05 07:27:54;;;;;;;;;;;20.60;56.50;;;;;;5065052;28;19913;-79
2021/10/05 07:30:23;;;;;;;;;;;20.40;56.80;;;;;;5065132;28;19909;-79
2021/10/05 07:32:53;;;;;;;;;;;20.30;57.60;;;;;;5049703;28;20253;-79
2021/10/05 07:35:19;;;;;;;;;;;20.30;57.40;;;;;;5064634;28;19920;-80
2021/10/05 07:37:44;;;;;;;;;;;20.30;57.40;;;;;;5049396;28;19966;-78
2021/10/05 07:40:14;;;;;;;;;;;20.30;57.20;;;;;;5064371;28;19917;-79
2021/10/05 07:42:40;;;;;;;;;;;20.20;57.50;;;;;;5049112;28;20443;-80
2021/10/05 07:45:06;;;;;;;;;;;20.10;58.40;;;;;;5047973;28;19916;-79
2021/10/05 07:47:31;;;;;;;;;;;19.90;58.60;;;;;;5048273;28;19904;-79
2021/10/05 07:49:57;;;;;;;;;;;20.00;58.80;;;;;;5047872;28;19904;-79
2021/10/05 07:52:23;;;;;;;;;;;20.00;59.00;;;;;;5064397;28;20474;-76
2021/10/05 07:54:48;;;;;;;;;;;20.20;58.30;;;;;;5049032;28;19924;-78
2021/10/05 07:57:14;;;;;;;;;;;20.20;57.90;;;;;;5047608;28;19915;-78
2021/10/05 07:59:39;;;;;;;;;;;20.40;58.10;;;;;;5064512;28;19909;-78
2021/10/05 08:02:05;;;;;;;;;;;20.60;57.20;;;;;;5048593;28;19916;-78
2021/10/05 08:04:31;;;;;;;;;;;21.10;57.30;;;;;;5064034;28;20521;-77
2021/10/05 08:06:56;;;;;;;;;;;21.50;54.90;;;;;;5048465;28;19913;-78
2021/10/05 08:09:22;;;;;;;;;;;22.00;54.00;;;;;;5048536;28;19991;-79
2021/10/05 08:11:47;;;;;;;;;;;22.30;52.80;;;;;;5048340;28;20001;-79
2021/10/05 08:14:13;;;;;;;;;;;22.70;52.70;;;;;;5048859;28;19909;-80
2021/10/05 08:16:38;;;;;;;;;;;23.20;51.70;;;;;;5048314;28;20301;-79
2021/10/05 08:19:04;;;;;;;;;;;23.40;49.60;;;;;;5048722;28;20273;-78
2021/10/05 08:21:30;;;;;;;;;;;23.30;50.90;;;;;;5048533;28;19908;-77
2021/10/05 08:23:55;;;;;;;;;;;23.60;50.80;;;;;;5048008;28;19909;-79
2021/10/05 08:26:21;;;;;;;;;;;24.00;49.50;;;;;;5048492;28;19908;-79
2021/10/05 08:28:47;;;;;;;;;;;24.40;48.30;;;;;;5047892;28;19920;-79
2021/10/05 08:31:13;;;;;;;;;;;24.60;48.20;;;;;;5048468;28;19998;-79
2021/10/05 08:33:38;;;;;;;;;;;24.80;47.60;;;;;;5048366;28;19943;-79
2021/10/05 08:36:04;;;;;;;;;;;24.90;47.30;;;;;;5046415;28;19912;-79
2021/10/05 08:38:30;;;;;;;;;;;25.50;46.50;;;;;;5047918;28;20361;-79
2021/10/05 08:40:55;;;;;;;;;;;25.50;45.70;;;;;;5048074;28;20703;-79
2021/10/05 08:43:22;;;;;;;;;;;25.40;45.30;;;;;;5047643;28;19912;-78
2021/10/05 08:45:48;;;;;;;;;;;25.00;46.40;;;;;;5048099;28;19954;-79
2021/10/05 08:48:13;;;;;;;;;;;25.30;45.80;;;;;;5047794;28;19909;-79
2021/10/05 08:50:40;;;;;;;;;;;25.20;46.00;;;;;;5047961;28;19905;-79
2021/10/05 08:53:05;;;;;;;;;;;25.60;45.80;;;;;;5047562;28;19908;-79
2021/10/05 08:55:31;;;;;;;;;;;25.90;45.10;;;;;;5047869;28;19920;-80
2021/10/05 08:57:57;;;;;;;;;;;25.90;44.90;;;;;;5045760;28;19948;-79
2021/10/05 09:00:22;;;;;;;;;;;25.50;44.30;;;;;;5046292;28;20293;-79
2021/10/05 09:02:52;;;;;;;;;;;25.50;45.10;;;;;;5047150;28;19909;-79
2021/10/05 09:05:18;;;;;;;;;;;25.60;45.40;;;;;;5047714;28;19919;-78
2021/10/05 09:07:45;;;;;;;;;;;26.00;44.50;;;;;;5047012;28;19908;-79
2021/10/05 09:10:12;;;;;;;;;;;26.50;43.40;;;;;;5047192;28;20000;-78
2021/10/05 09:12:37;;;;;;;;;;;26.40;43.40;;;;;;5046529;28;19913;-79
2021/10/05 09:15:05;;;;;;;;;;;26.50;43.50;;;;;;5047411;28;19962;-78
2021/10/05 09:17:31;;;;;;;;;;;26.10;43.70;;;;;;5047313;28;19911;-79
2021/10/05 09:19:57;;;;;;;;;;;26.10;44.30;;;;;;5045427;28;19912;-79
2021/10/05 09:22:25;;;;;;;;;;;26.20;44.10;;;;;;5047180;28;20026;-78
2021/10/05 09:24:52;;;;;;;;;;;26.50;42.80;;;;;;5047042;28;19908;-80
2021/10/05 09:27:18;;;;;;;;;;;26.30;43.40;;;;;;5047282;28;19913;-79
2021/10/05 09:29:44;;;;;;;;;;;26.40;42.70;;;;;;5046971;28;19909;-78
2021/10/05 09:32:11;;;;;;;;;;;26.30;43.00;;;;;;5062076;28;19915;-77
2021/10/05 09:34:37;;;;;;;;;;;26.50;43.30;;;;;;5047121;28;19959;-79
2021/10/05 09:37:09;;;;;;;;;;;26.80;42.40;;;;;;5046902;28;19951;-80
2021/10/05 09:39:38;;;;;;;;;;;26.80;42.70;;;;;;5046772;28;19944;-79
2021/10/05 09:42:03;;;;;;;;;;;26.80;42.40;;;;;;5045874;28;19940;-78
2021/10/05 09:44:29;;;;;;;;;;;26.80;42.90;;;;;;5047148;28;19974;-80
2021/10/05 09:46:55;;;;;;;;;;;26.80;42.50;;;;;;5046756;28;19912;-79
2021/10/05 09:49:20;;;;;;;;;;;26.50;43.60;;;;;;5046976;28;19987;-80
2021/10/05 09:51:55;;;;;;;;;;;26.40;43.10;;;;;;5045577;28;19993;-79
2021/10/05 09:54:21;;;;;;;;;;;26.40;43.00;;;;;;5046629;28;20000;-80
2021/10/05 09:56:46;;;;;;;;;;;26.80;42.50;;;;;;5047003;28;20361;-78
2021/10/05 09:59:11;;;;;;;;;;;26.70;42.40;;;;;;5045862;28;19909;-80
2021/10/05 10:01:38;;;;;;;;;;;26.60;42.30;;;;;;5046589;28;20325;-79
2021/10/05 10:04:04;;;;;;;;;;;26.60;42.00;;;;;;5046544;28;19916;-79
2021/10/05 10:06:30;;;;;;;;;;;26.40;42.90;;;;;;5061673;28;19909;-79
2021/10/05 10:08:57;;;;;;;;;;;26.30;43.10;;;;;;5045197;28;19974;-79
2021/10/05 10:11:23;;;;;;;;;;;26.40;43.50;;;;;;5045841;28;19908;-79
2021/10/05 10:13:49;;;;;;;;;;;26.50;42.70;;;;;;5046551;28;19909;-78
2021/10/05 10:16:15;;;;;;;;;;;26.30;42.70;;;;;;5046539;28;19923;-79
2021/10/05 10:18:59;;;;;;;;;;;26.20;43.30;;;;;;5061578;28;19937;-78
2021/10/05 10:21:29;;;;;;;;;;;26.30;43.50;;;;;;5046430;28;19908;-78
2021/10/05 10:24:14;;;;;;;;;;;25.70;43.70;;;;;;5045956;28;20004;-77
2021/10/05 10:26:44;;;;;;;;;;;25.10;45.10;;;;;;5044151;28;19916;-78
2021/10/05 10:29:11;;;;;;;;;;;24.20;47.20;;;;;;5046392;28;19909;-78
2021/10/05 10:31:39;;;;;;;;;;;24.00;48.50;;;;;;5046326;28;20051;-77
2021/10/05 10:34:05;;;;;;;;;;;23.60;47.80;;;;;;5061429;28;20372;-76
2021/10/05 10:36:37;;;;;;;;;;;23.40;49.00;;;;;;5046029;28;20409;-80
2021/10/05 10:39:13;;;;;;;;;;;23.10;49.20;;;;;;5045933;28;19912;-78
2021/10/05 10:41:40;;;;;;;;;;;22.90;49.30;;;;;;5046326;28;19921;-76
2021/10/05 10:44:07;;;;;;;;;;;22.70;49.80;;;;;;5061675;28;19909;-77
2021/10/05 10:46:34;;;;;;;;;;;22.50;50.50;;;;;;5045993;28;19905;-77
2021/10/05 10:49:00;;;;;;;;;;;22.40;50.70;;;;;;5046184;28;19909;-77
2021/10/05 10:51:27;;;;;;;;;;;22.40;51.90;;;;;;5045936;28;19931;-79
2021/10/05 10:53:53;;;;;;;;;;;22.40;51.50;;;;;;5045693;28;19912;-78
2021/10/05 10:56:33;;;;;;;;;;;22.40;51.40;;;;;;5045441;28;19923;-78
2021/10/05 10:59:00;;;;;;;;;;;22.40;50.80;;;;;;5045255;28;19988;-78
2021/10/05 11:01:55;;;;;;;;;;;22.30;51.70;;;;;;5060838;28;20364;-77
2021/10/05 11:04:20;;;;;;;;;;;22.40;51.30;;;;;;5032108;28;19908;-80
2021/10/05 11:06:47;;;;;;;;;;;22.70;50.80;;;;;;5046048;28;19909;-78
2021/10/05 11:09:13;;;;;;;;;;;22.80;50.10;;;;;;5045935;28;19909;-79
2021/10/05 11:11:43;;;;;;;;;;;22.70;50.10;;;;;;5046317;28;19930;-79
2021/10/05 11:14:13;;;;;;;;;;;22.70;51.10;;;;;;5045338;28;19936;-77
2021/10/05 11:16:40;;;;;;;;;;;22.60;50.40;;;;;;5045887;28;19916;-77
2021/10/05 11:19:06;;;;;;;;;;;22.60;51.00;;;;;;5044389;28;19908;-77
2021/10/05 11:21:33;;;;;;;;;;;22.60;51.00;;;;;;5047626;28;19905;-78
2021/10/05 11:23:59;;;;;;;;;;;22.60;51.10;;;;;;5049353;28;19905;-78
2021/10/05 11:26:31;;;;;;;;;;;22.70;51.30;;;;;;5049467;28;20475;-76
2021/10/05 11:28:56;;;;;;;;;;;22.70;50.70;;;;;;5049402;28;20396;-76
2021/10/05 11:31:22;;;;;;;;;;;22.80;50.50;;;;;;5049706;28;19917;-76
2021/10/05 11:33:47;;;;;;;;;;;22.90;50.70;;;;;;5049300;28;19920;-79
2021/10/05 11:36:16;;;;;;;;;;;22.80;50.10;;;;;;5048879;28;19916;-77
2021/10/05 11:38:43;;;;;;;;;;;22.90;49.80;;;;;;5049142;28;20042;-78
2021/10/05 11:41:09;;;;;;;;;;;22.90;50.10;;;;;;5048513;28;19920;-78
2021/10/05 11:43:40;;;;;;;;;;;22.90;50.30;;;;;;5050651;28;19915;-79
2021/10/05 11:46:24;;;;;;;;;;;23.00;50.70;;;;;;5064805;28;20362;-79
2021/10/05 11:48:51;;;;;;;;;;;22.90;50.20;;;;;;5048824;28;19940;-77
2021/10/05 11:51:18;;;;;;;;;;;23.00;48.90;;;;;;5048741;28;20423;-77
2021/10/05 11:53:44;;;;;;;;;;;23.00;49.50;;;;;;5048570;28;20383;-76
2021/10/05 11:56:11;;;;;;;;;;;23.00;49.70;;;;;;5048106;28;19913;-77
2021/10/05 11:58:40;;;;;;;;;;;23.10;48.90;;;;;;5048444;28;20373;-77
2021/10/05 12:01:17;;;;;;;;;;;23.20;48.40;;;;;;5047941;28;19916;-76
2021/10/05 12:03:46;;;;;;;;;;;23.30;48.20;;;;;;5064118;28;19905;-78
2021/10/05 12:06:23;;;;;;;;;;;23.30;48.90;;;;;;5063671;28;19909;-79
2021/10/05 12:08:48;;;;;;;;;;;23.40;48.30;;;;;;5047346;28;19909;-78
2021/10/05 12:11:14;;;;;;;;;;;23.50;47.70;;;;;;5048604;28;19994;-78
2021/10/05 12:13:39;;;;;;;;;;;23.50;47.10;;;;;;5048719;28;19909;-77
2021/10/05 12:16:14;;;;;;;;;;;23.70;47.00;;;;;;5047988;28;19962;-78
2021/10/05 12:18:40;;;;;;;;;;;23.60;46.90;;;;;;5048285;28;19956;-77
2021/10/05 12:21:07;;;;;;;;;;;23.60;46.70;;;;;;5048214;28;19966;-78
2021/10/05 12:23:32;;;;;;;;;;;23.70;45.90;;;;;;5063807;28;20528;-78
2021/10/05 12:26:11;;;;;;;;;;;23.80;45.70;;;;;;5048434;28;19909;-77
2021/10/05 12:28:37;;;;;;;;;;;23.90;45.80;;;;;;5047942;28;20382;-79
2021/10/05 12:31:12;;;;;;;;;;;23.90;45.60;;;;;;5046940;28;19962;-78
2021/10/05 12:33:38;;;;;;;;;;;24.00;45.70;;;;;;5047131;28;20345;-77
2021/10/05 12:36:03;;;;;;;;;;;24.00;45.20;;;;;;5047837;28;19964;-78
2021/10/05 12:38:34;;;;;;;;;;;24.10;45.50;;;;;;5048142;28;20377;-78
2021/10/05 12:41:00;;;;;;;;;;;24.10;44.60;;;;;;5047731;28;20683;-78
2021/10/05 12:43:35;;;;;;;;;;;24.10;45.10;;;;;;5048337;28;19936;-77
2021/10/05 12:46:01;;;;;;;;;;;24.20;44.70;;;;;;5046461;28;19909;-78
2021/10/05 12:48:32;;;;;;;;;;;24.20;44.50;;;;;;5047711;28;19925;-76
2021/10/05 12:50:58;;;;;;;;;;;24.10;44.90;;;;;;5048035;28;19909;-78
2021/10/05 12:53:23;;;;;;;;;;;24.00;45.20;;;;;;5047668;28;19931;-79
2021/10/05 12:55:49;;;;;;;;;;;24.10;45.60;;;;;;5047783;28;19960;-77
2021/10/05 12:58:16;;;;;;;;;;;24.20;44.50;;;;;;5046833;28;19915;-79
2021/10/05 13:00:44;;;;;;;;;;;24.20;44.60;;;;;;5047565;28;19940;-79
2021/10/05 13:03:12;;;;;;;;;;;24.30;44.60;;;;;;5045936;28;19909;-78
2021/10/05 13:05:38;;;;;;;;;;;24.30;44.80;;;;;;5047355;28;20400;-79
2021/10/05 13:08:03;;;;;;;;;;;24.30;44.70;;;;;;5047448;28;19908;-78
2021/10/05 13:10:29;;;;;;;;;;;24.20;45.00;;;;;;5048098;28;19916;-79
2021/10/05 13:12:54;;;;;;;;;;;24.30;44.40;;;;;;5047765;28;19912;-78
2021/10/05 13:15:20;;;;;;;;;;;24.20;44.40;;;;;;5047716;28;19986;-80
2021/10/05 13:17:45;;;;;;;;;;;24.20;44.70;;;;;;5062909;28;19904;-80
2021/10/05 13:20:12;;;;;;;;;;;24.10;45.00;;;;;;5047019;28;19952;-80
2021/10/05 13:22:37;;;;;;;;;;;24.10;44.70;;;;;;5047212;28;19909;-79
2021/10/05 13:25:04;;;;;;;;;;;24.20;44.80;;;;;;5047626;28;19951;-80
2021/10/05 13:27:29;;;;;;;;;;;24.30;44.50;;;;;;5062675;28;19909;-79
2021/10/05 13:29:55;;;;;;;;;;;24.20;44.50;;;;;;5045453;28;20331;-80
2021/10/05 13:32:21;;;;;;;;;;;24.20;44.00;;;;;;5046182;28;19955;-80
2021/10/05 13:34:47;;;;;;;;;;;24.10;44.40;;;;;;5061895;28;19905;-80
2021/10/05 13:37:13;;;;;;;;;;;24.10;44.50;;;;;;5047292;28;19920;-79
2021/10/05 13:39:38;;;;;;;;;;;24.10;44.60;;;;;;5047206;28;19967;-79
2021/10/05 13:42:04;;;;;;;;;;;24.10;44.40;;;;;;5045401;28;19920;-80
2021/10/05 13:44:30;;;;;;;;;;;24.00;45.10;;;;;;5045998;28;20510;-79
2021/10/05 13:46:55;;;;;;;;;;;24.00;44.90;;;;;;5047019;28;19908;-79
2021/10/05 13:49:21;;;;;;;;;;;24.00;44.80;;;;;;5046965;28;19908;-80
2021/10/05 13:51:46;;;;;;;;;;;24.00;45.00;;;;;;5046434;28;19911;-80
2021/10/05 13:54:12;;;;;;;;;;;24.10;45.00;;;;;;5045375;28;19909;-78
2021/10/05 13:56:41;;;;;;;;;;;24.10;44.50;;;;;;5046555;28;19975;-79
2021/10/05 13:59:07;;;;;;;;;;;24.10;44.70;;;;;;5047099;28;19928;-79
2021/10/05 14:01:33;;;;;;;;;;;24.10;44.10;;;;;;5047066;28;20363;-80
2021/10/05 14:03:59;;;;;;;;;;;24.10;44.20;;;;;;5046561;28;19908;-80
2021/10/05 14:06:24;;;;;;;;;;;24.10;44.50;;;;;;5045559;28;19954;-78
2021/10/05 14:08:50;;;;;;;;;;;24.00;44.20;;;;;;5046474;28;20262;-79
2021/10/05 14:11:15;;;;;;;;;;;24.00;44.20;;;;;;5046696;28;19909;-80
2021/10/05 14:13:41;;;;;;;;;;;24.00;44.10;;;;;;5045752;28;19916;-78